Главная страница
METAR-TAF:

METAR-TAF

Аэропорты :

Берлевог, Норвегия

широта: 70-52N, долгота: 029-02E, высота над уровнем моря: 1 м

Текущие метеонаблюдения

Эта сводка был подготовлена 8 часа и 36 минут назад, в 10:50 UTC
Ветер 26 Узел от западно-северо-западный
Температура 8°C
Влажность 87%
Давление 1001 hPa
Видимость 10 км и более
небольшая облачность на высоте 800 фута
Отдельные облака на высоте 1500 фута
Рассеянная облачность на высоте 3500 фута

METAR: ENBV 151050Z 29026KT 9999 FEW008 SCT015 BKN035 08/06 Q1001

Время: 21:26 (19:26 UTC)

Прогноз

Эта сводка был подготовлена 8 часа и 26 минут назад, в 11:00 UTC
Прогноз действительный с 15-го 12 UTC до 15-го 21 UTC
Ветер 12 Узел от западный
Видимость 10 км и более
небольшая облачность на высоте 1500 фута
Рассеянная облачность на высоте 3000 фута
временами
С 15-го 12 UTC до 15-го 14 UTC
Ветер 22 Узел от западный

TAF: ENBV 151100Z 1512/1521 27012KT 9999 FEW015 BKN030 TEMPO 1512/1514 28022KT

Метеонаблюдения и прогнозы для более 4000 аэропортов (сводки METAR и TAF).

Имеющиеся станции представлены на карте желтыми и красными точками.

Чтобы увидеть название станции, наведите на нее мышь.

Затем щелкните, чтобы увидеть метеонаблюдения и метеопрогнозы.

Управление картой: чтобы увеличить масштаб, щелкните зеленые кнопки с черным крестиком; чтобы уменьшить масштаб, щелкните зеленую кнопку с тире; для просмотра соседних карт щелкайте зеленые стрелки.


METAR-TAF: